sensor_id;sensor_type;location;lat;lon;timestamp;P1;durP1;ratioP1;P2;durP2;ratioP2
8439;SDS011;4257;48.568;7.818;2023-05-14T00:01:34;1.50;;;0.80;;
8439;SDS011;4257;48.568;7.818;2023-05-14T00:04:01;2.40;;;1.67;;
8439;SDS011;4257;48.568;7.818;2023-05-14T00:06:27;2.73;;;1.10;;
8439;SDS011;4257;48.568;7.818;2023-05-14T00:08:54;3.30;;;1.60;;
8439;SDS011;4257;48.568;7.818;2023-05-14T00:11:21;2.30;;;1.92;;
8439;SDS011;4257;48.568;7.818;2023-05-14T00:13:48;2.63;;;1.97;;
8439;SDS011;4257;48.568;7.818;2023-05-14T00:16:14;1.20;;;1.00;;
8439;SDS011;4257;48.568;7.818;2023-05-14T00:18:42;2.30;;;1.33;;
8439;SDS011;4257;48.568;7.818;2023-05-14T00:21:09;3.23;;;1.17;;
8439;SDS011;4257;48.568;7.818;2023-05-14T00:23:35;2.03;;;1.50;;
8439;SDS011;4257;48.568;7.818;2023-05-14T00:26:02;1.37;;;1.00;;
8439;SDS011;4257;48.568;7.818;2023-05-14T00:28:28;2.00;;;1.30;;
8439;SDS011;4257;48.568;7.818;2023-05-14T00:30:55;1.70;;;1.33;;
8439;SDS011;4257;48.568;7.818;2023-05-14T00:33:21;1.10;;;1.00;;
8439;SDS011;4257;48.568;7.818;2023-05-14T00:35:49;2.00;;;1.23;;
8439;SDS011;4257;48.568;7.818;2023-05-14T00:38:16;1.90;;;1.13;;
8439;SDS011;4257;48.568;7.818;2023-05-14T00:40:43;3.73;;;1.13;;
8439;SDS011;4257;48.568;7.818;2023-05-14T00:43:15;1.53;;;1.10;;
8439;SDS011;4257;48.568;7.818;2023-05-14T00:45:41;2.53;;;1.03;;
8439;SDS011;4257;48.568;7.818;2023-05-14T00:48:08;2.27;;;1.20;;
8439;SDS011;4257;48.568;7.818;2023-05-14T00:50:34;1.60;;;1.00;;
8439;SDS011;4257;48.568;7.818;2023-05-14T00:53:02;1.53;;;1.20;;
8439;SDS011;4257;48.568;7.818;2023-05-14T00:55:34;1.00;;;0.80;;
8439;SDS011;4257;48.568;7.818;2023-05-14T00:58:00;0.87;;;0.87;;
8439;SDS011;4257;48.568;7.818;2023-05-14T01:00:28;4.63;;;1.87;;
8439;SDS011;4257;48.568;7.818;2023-05-14T01:02:54;3.07;;;1.60;;
8439;SDS011;4257;48.568;7.818;2023-05-14T01:05:21;1.80;;;1.13;;
8439;SDS011;4257;48.568;7.818;2023-05-14T01:07:52;3.07;;;1.50;;
8439;SDS011;4257;48.568;7.818;2023-05-14T01:10:24;1.80;;;1.30;;
8439;SDS011;4257;48.568;7.818;2023-05-14T01:12:56;3.37;;;1.43;;
8439;SDS011;4257;48.568;7.818;2023-05-14T01:15:29;1.10;;;1.00;;
8439;SDS011;4257;48.568;7.818;2023-05-14T01:17:58;1.30;;;1.20;;
8439;SDS011;4257;48.568;7.818;2023-05-14T01:20:25;1.60;;;1.30;;
8439;SDS011;4257;48.568;7.818;2023-05-14T01:22:53;6.37;;;1.60;;
8439;SDS011;4257;48.568;7.818;2023-05-14T01:25:20;4.53;;;1.77;;
8439;SDS011;4257;48.568;7.818;2023-05-14T01:27:48;2.80;;;1.87;;
8439;SDS011;4257;48.568;7.818;2023-05-14T01:30:18;2.13;;;1.57;;
8439;SDS011;4257;48.568;7.818;2023-05-14T01:32:47;2.00;;;1.67;;
8439;SDS011;4257;48.568;7.818;2023-05-14T01:35:17;2.47;;;1.13;;
8439;SDS011;4257;48.568;7.818;2023-05-14T01:37:44;2.07;;;1.00;;
8439;SDS011;4257;48.568;7.818;2023-05-14T01:40:12;1.87;;;1.33;;
8439;SDS011;4257;48.568;7.818;2023-05-14T01:42:39;2.53;;;1.90;;
8439;SDS011;4257;48.568;7.818;2023-05-14T01:45:06;2.67;;;1.50;;
8439;SDS011;4257;48.568;7.818;2023-05-14T01:47:33;1.50;;;1.20;;
8439;SDS011;4257;48.568;7.818;2023-05-14T01:50:00;3.80;;;1.33;;
8439;SDS011;4257;48.568;7.818;2023-05-14T01:52:26;1.40;;;1.17;;
8439;SDS011;4257;48.568;7.818;2023-05-14T01:54:53;1.23;;;1.07;;
8439;SDS011;4257;48.568;7.818;2023-05-14T01:57:21;2.63;;;1.73;;
8439;SDS011;4257;48.568;7.818;2023-05-14T01:59:47;2.40;;;1.47;;
8439;SDS011;4257;48.568;7.818;2023-05-14T02:02:14;1.60;;;1.20;;
8439;SDS011;4257;48.568;7.818;2023-05-14T02:04:40;1.60;;;1.27;;
8439;SDS011;4257;48.568;7.818;2023-05-14T02:07:07;1.53;;;1.10;;
8439;SDS011;4257;48.568;7.818;2023-05-14T02:09:33;1.43;;;1.07;;
8439;SDS011;4257;48.568;7.818;2023-05-14T02:12:00;1.20;;;1.07;;
8439;SDS011;4257;48.568;7.818;2023-05-14T02:14:28;2.10;;;1.40;;
8439;SDS011;4257;48.568;7.818;2023-05-14T02:17:14;2.57;;;0.93;;
8439;SDS011;4257;48.568;7.818;2023-05-14T02:19:41;1.13;;;0.93;;
8439;SDS011;4257;48.568;7.818;2023-05-14T02:22:08;3.30;;;1.77;;
8439;SDS011;4257;48.568;7.818;2023-05-14T02:24:34;2.50;;;1.40;;
8439;SDS011;4257;48.568;7.818;2023-05-14T02:27:01;1.90;;;1.07;;
8439;SDS011;4257;48.568;7.818;2023-05-14T02:29:29;1.47;;;1.30;;
8439;SDS011;4257;48.568;7.818;2023-05-14T02:31:55;2.10;;;1.43;;
8439;SDS011;4257;48.568;7.818;2023-05-14T02:34:22;3.93;;;1.93;;
8439;SDS011;4257;48.568;7.818;2023-05-14T02:36:48;2.63;;;1.37;;
8439;SDS011;4257;48.568;7.818;2023-05-14T02:39:15;1.77;;;1.20;;
8439;SDS011;4257;48.568;7.818;2023-05-14T02:41:41;2.03;;;1.27;;
8439;SDS011;4257;48.568;7.818;2023-05-14T02:44:08;2.20;;;1.17;;
8439;SDS011;4257;48.568;7.818;2023-05-14T02:46:35;2.63;;;1.50;;
8439;SDS011;4257;48.568;7.818;2023-05-14T02:49:02;1.13;;;0.93;;
8439;SDS011;4257;48.568;7.818;2023-05-14T02:51:28;2.20;;;1.50;;
8439;SDS011;4257;48.568;7.818;2023-05-14T02:53:55;1.90;;;1.13;;
8439;SDS011;4257;48.568;7.818;2023-05-14T02:56:21;2.40;;;1.33;;
8439;SDS011;4257;48.568;7.818;2023-05-14T02:58:48;1.30;;;1.20;;
8439;SDS011;4257;48.568;7.818;2023-05-14T03:01:14;3.10;;;1.80;;
8439;SDS011;4257;48.568;7.818;2023-05-14T03:03:44;4.23;;;1.57;;
8439;SDS011;4257;48.568;7.818;2023-05-14T03:06:10;2.90;;;1.63;;
8439;SDS011;4257;48.568;7.818;2023-05-14T03:08:37;6.23;;;1.77;;
8439;SDS011;4257;48.568;7.818;2023-05-14T03:11:03;2.27;;;1.40;;
8439;SDS011;4257;48.568;7.818;2023-05-14T03:13:30;1.60;;;1.50;;
8439;SDS011;4257;48.568;7.818;2023-05-14T03:15:57;1.70;;;1.30;;
8439;SDS011;4257;48.568;7.818;2023-05-14T03:18:23;1.67;;;1.40;;
8439;SDS011;4257;48.568;7.818;2023-05-14T03:20:53;2.00;;;1.40;;
8439;SDS011;4257;48.568;7.818;2023-05-14T03:23:20;3.03;;;1.80;;
8439;SDS011;4257;48.568;7.818;2023-05-14T03:25:46;2.13;;;1.10;;
8439;SDS011;4257;48.568;7.818;2023-05-14T03:28:13;8.10;;;2.17;;
8439;SDS011;4257;48.568;7.818;2023-05-14T03:30:39;2.40;;;1.53;;
8439;SDS011;4257;48.568;7.818;2023-05-14T03:33:06;1.63;;;1.47;;
8439;SDS011;4257;48.568;7.818;2023-05-14T03:35:32;2.37;;;1.67;;
8439;SDS011;4257;48.568;7.818;2023-05-14T03:38:00;1.90;;;1.80;;
8439;SDS011;4257;48.568;7.818;2023-05-14T03:40:27;1.90;;;1.20;;
8439;SDS011;4257;48.568;7.818;2023-05-14T03:42:53;3.10;;;1.17;;
8439;SDS011;4257;48.568;7.818;2023-05-14T03:45:20;2.60;;;1.63;;
8439;SDS011;4257;48.568;7.818;2023-05-14T03:47:46;1.87;;;1.30;;
8439;SDS011;4257;48.568;7.818;2023-05-14T03:50:13;1.93;;;1.20;;
8439;SDS011;4257;48.568;7.818;2023-05-14T03:52:39;2.90;;;1.50;;
8439;SDS011;4257;48.568;7.818;2023-05-14T03:55:08;2.43;;;2.23;;
8439;SDS011;4257;48.568;7.818;2023-05-14T03:57:35;1.73;;;1.40;;
8439;SDS011;4257;48.568;7.818;2023-05-14T04:00:01;1.97;;;1.63;;
8439;SDS011;4257;48.568;7.818;2023-05-14T04:02:28;4.07;;;1.83;;
8439;SDS011;4257;48.568;7.818;2023-05-14T04:04:55;11.03;;;2.33;;
8439;SDS011;4257;48.568;7.818;2023-05-14T04:07:21;4.53;;;2.03;;
8439;SDS011;4257;48.568;7.818;2023-05-14T04:09:48;1.00;;;0.90;;
8439;SDS011;4257;48.568;7.818;2023-05-14T04:12:15;1.47;;;1.37;;
8439;SDS011;4257;48.568;7.818;2023-05-14T04:14:42;3.50;;;1.13;;
8439;SDS011;4257;48.568;7.818;2023-05-14T04:17:08;3.03;;;1.80;;
8439;SDS011;4257;48.568;7.818;2023-05-14T04:19:35;2.40;;;1.33;;
8439;SDS011;4257;48.568;7.818;2023-05-14T04:22:02;1.87;;;1.13;;
8439;SDS011;4257;48.568;7.818;2023-05-14T04:24:28;2.47;;;1.80;;
8439;SDS011;4257;48.568;7.818;2023-05-14T04:26:55;2.80;;;1.40;;
8439;SDS011;4257;48.568;7.818;2023-05-14T04:29:22;4.00;;;1.37;;
8439;SDS011;4257;48.568;7.818;2023-05-14T04:31:49;1.33;;;1.00;;
8439;SDS011;4257;48.568;7.818;2023-05-14T04:34:16;1.37;;;1.27;;
8439;SDS011;4257;48.568;7.818;2023-05-14T04:36:42;3.03;;;1.30;;
8439;SDS011;4257;48.568;7.818;2023-05-14T04:39:09;2.10;;;1.40;;
8439;SDS011;4257;48.568;7.818;2023-05-14T04:41:36;3.53;;;1.57;;
8439;SDS011;4257;48.568;7.818;2023-05-14T04:44:03;2.23;;;1.17;;
8439;SDS011;4257;48.568;7.818;2023-05-14T04:46:31;1.83;;;1.60;;
8439;SDS011;4257;48.568;7.818;2023-05-14T04:48:57;5.60;;;1.30;;
8439;SDS011;4257;48.568;7.818;2023-05-14T04:51:24;2.43;;;1.40;;
8439;SDS011;4257;48.568;7.818;2023-05-14T04:53:51;2.70;;;1.57;;
8439;SDS011;4257;48.568;7.818;2023-05-14T04:56:17;1.53;;;1.40;;
8439;SDS011;4257;48.568;7.818;2023-05-14T04:58:43;2.97;;;2.07;;
8439;SDS011;4257;48.568;7.818;2023-05-14T05:01:10;1.50;;;1.40;;
8439;SDS011;4257;48.568;7.818;2023-05-14T05:03:38;1.80;;;1.13;;
8439;SDS011;4257;48.568;7.818;2023-05-14T05:06:04;2.10;;;1.23;;
8439;SDS011;4257;48.568;7.818;2023-05-14T05:08:31;1.50;;;1.20;;
8439;SDS011;4257;48.568;7.818;2023-05-14T05:10:58;2.67;;;1.63;;
8439;SDS011;4257;48.568;7.818;2023-05-14T05:13:25;2.70;;;1.77;;
8439;SDS011;4257;48.568;7.818;2023-05-14T05:15:52;1.97;;;1.67;;
8439;SDS011;4257;48.568;7.818;2023-05-14T05:18:18;8.63;;;1.70;;
8439;SDS011;4257;48.568;7.818;2023-05-14T05:20:46;2.33;;;1.73;;
8439;SDS011;4257;48.568;7.818;2023-05-14T05:23:13;2.43;;;1.90;;
8439;SDS011;4257;48.568;7.818;2023-05-14T05:25:39;1.63;;;1.30;;
8439;SDS011;4257;48.568;7.818;2023-05-14T05:28:06;2.73;;;1.63;;
8439;SDS011;4257;48.568;7.818;2023-05-14T05:30:32;2.47;;;1.47;;
8439;SDS011;4257;48.568;7.818;2023-05-14T05:32:59;2.67;;;1.57;;
8439;SDS011;4257;48.568;7.818;2023-05-14T05:35:26;2.27;;;1.53;;
8439;SDS011;4257;48.568;7.818;2023-05-14T05:37:53;2.97;;;1.13;;
8439;SDS011;4257;48.568;7.818;2023-05-14T05:40:20;3.23;;;1.93;;
8439;SDS011;4257;48.568;7.818;2023-05-14T05:42:46;1.63;;;1.20;;
8439;SDS011;4257;48.568;7.818;2023-05-14T05:45:13;2.27;;;1.47;;
8439;SDS011;4257;48.568;7.818;2023-05-14T05:47:40;2.03;;;1.47;;
8439;SDS011;4257;48.568;7.818;2023-05-14T05:50:06;2.27;;;1.63;;
8439;SDS011;4257;48.568;7.818;2023-05-14T05:52:34;1.87;;;1.07;;
8439;SDS011;4257;48.568;7.818;2023-05-14T05:55:02;2.33;;;1.13;;
8439;SDS011;4257;48.568;7.818;2023-05-14T05:57:28;2.23;;;1.37;;
8439;SDS011;4257;48.568;7.818;2023-05-14T05:59:55;2.40;;;1.43;;
8439;SDS011;4257;48.568;7.818;2023-05-14T06:02:22;3.27;;;1.50;;
8439;SDS011;4257;48.568;7.818;2023-05-14T06:04:49;1.47;;;1.37;;
8439;SDS011;4257;48.568;7.818;2023-05-14T06:07:16;1.77;;;1.47;;
8439;SDS011;4257;48.568;7.818;2023-05-14T06:09:42;1.80;;;1.07;;
8439;SDS011;4257;48.568;7.818;2023-05-14T06:12:10;2.03;;;1.37;;
8439;SDS011;4257;48.568;7.818;2023-05-14T06:14:37;1.60;;;1.20;;
8439;SDS011;4257;48.568;7.818;2023-05-14T06:17:03;2.60;;;1.50;;
8439;SDS011;4257;48.568;7.818;2023-05-14T06:19:30;3.17;;;1.33;;
8439;SDS011;4257;48.568;7.818;2023-05-14T06:21:56;1.07;;;0.63;;
8439;SDS011;4257;48.568;7.818;2023-05-14T06:24:23;2.40;;;1.10;;
8439;SDS011;4257;48.568;7.818;2023-05-14T06:26:49;1.07;;;0.97;;
8439;SDS011;4257;48.568;7.818;2023-05-14T06:29:17;1.67;;;1.53;;
8439;SDS011;4257;48.568;7.818;2023-05-14T06:31:44;3.10;;;1.50;;
8439;SDS011;4257;48.568;7.818;2023-05-14T06:34:10;2.67;;;1.37;;
8439;SDS011;4257;48.568;7.818;2023-05-14T06:36:37;1.10;;;0.93;;
8439;SDS011;4257;48.568;7.818;2023-05-14T06:39:03;1.70;;;1.10;;
8439;SDS011;4257;48.568;7.818;2023-05-14T06:41:30;1.17;;;1.00;;
8439;SDS011;4257;48.568;7.818;2023-05-14T06:43:56;1.37;;;1.23;;
8439;SDS011;4257;48.568;7.818;2023-05-14T06:46:24;1.47;;;1.17;;
8439;SDS011;4257;48.568;7.818;2023-05-14T06:48:50;3.00;;;1.60;;
8439;SDS011;4257;48.568;7.818;2023-05-14T06:51:17;1.27;;;1.17;;
8439;SDS011;4257;48.568;7.818;2023-05-14T06:53:43;3.30;;;1.00;;
8439;SDS011;4257;48.568;7.818;2023-05-14T06:56:10;4.33;;;1.97;;
8439;SDS011;4257;48.568;7.818;2023-05-14T06:58:38;2.13;;;1.53;;
8439;SDS011;4257;48.568;7.818;2023-05-14T07:01:05;2.40;;;1.47;;
8439;SDS011;4257;48.568;7.818;2023-05-14T07:03:33;2.10;;;1.10;;
8439;SDS011;4257;48.568;7.818;2023-05-14T07:05:59;1.67;;;1.20;;
8439;SDS011;4257;48.568;7.818;2023-05-14T07:08:26;1.53;;;1.43;;
8439;SDS011;4257;48.568;7.818;2023-05-14T07:10:52;2.70;;;1.50;;
8439;SDS011;4257;48.568;7.818;2023-05-14T07:13:18;2.03;;;1.47;;
8439;SDS011;4257;48.568;7.818;2023-05-14T07:15:45;1.47;;;1.20;;
8439;SDS011;4257;48.568;7.818;2023-05-14T07:18:11;1.33;;;1.10;;
8439;SDS011;4257;48.568;7.818;2023-05-14T07:20:39;1.27;;;1.03;;
8439;SDS011;4257;48.568;7.818;2023-05-14T07:23:06;1.30;;;0.87;;
8439;SDS011;4257;48.568;7.818;2023-05-14T07:25:32;1.93;;;1.60;;
8439;SDS011;4257;48.568;7.818;2023-05-14T07:27:59;2.37;;;1.10;;
8439;SDS011;4257;48.568;7.818;2023-05-14T07:30:25;1.40;;;1.30;;
8439;SDS011;4257;48.568;7.818;2023-05-14T07:32:52;1.83;;;1.08;;
8439;SDS011;4257;48.568;7.818;2023-05-14T07:35:18;2.97;;;0.80;;
8439;SDS011;4257;48.568;7.818;2023-05-14T07:37:46;2.40;;;1.30;;
8439;SDS011;4257;48.568;7.818;2023-05-14T07:40:13;1.13;;;0.80;;
8439;SDS011;4257;48.568;7.818;2023-05-14T07:42:40;1.83;;;1.20;;
8439;SDS011;4257;48.568;7.818;2023-05-14T07:45:07;1.40;;;1.13;;
8439;SDS011;4257;48.568;7.818;2023-05-14T07:47:34;2.43;;;1.93;;
8439;SDS011;4257;48.568;7.818;2023-05-14T07:50:01;1.50;;;1.13;;
8439;SDS011;4257;48.568;7.818;2023-05-14T07:52:27;1.63;;;1.20;;
8439;SDS011;4257;48.568;7.818;2023-05-14T07:54:55;1.67;;;1.37;;
8439;SDS011;4257;48.568;7.818;2023-05-14T07:57:22;2.50;;;1.37;;
8439;SDS011;4257;48.568;7.818;2023-05-14T07:59:48;2.23;;;1.33;;
8439;SDS011;4257;48.568;7.818;2023-05-14T08:02:14;2.77;;;0.97;;
8439;SDS011;4257;48.568;7.818;2023-05-14T08:04:41;1.25;;;0.88;;
8439;SDS011;4257;48.568;7.818;2023-05-14T08:07:08;1.97;;;1.60;;
8439;SDS011;4257;48.568;7.818;2023-05-14T08:09:34;1.63;;;1.13;;
8439;SDS011;4257;48.568;7.818;2023-05-14T08:12:02;1.13;;;1.03;;
8439;SDS011;4257;48.568;7.818;2023-05-14T08:14:30;2.35;;;1.10;;
8439;SDS011;4257;48.568;7.818;2023-05-14T08:16:56;1.80;;;1.20;;
8439;SDS011;4257;48.568;7.818;2023-05-14T08:19:23;3.50;;;1.88;;
8439;SDS011;4257;48.568;7.818;2023-05-14T08:21:51;3.05;;;1.40;;
8439;SDS011;4257;48.568;7.818;2023-05-14T08:24:17;2.83;;;1.52;;
8439;SDS011;4257;48.568;7.818;2023-05-14T08:26:44;1.88;;;1.13;;
8439;SDS011;4257;48.568;7.818;2023-05-14T08:29:12;1.48;;;1.38;;
8439;SDS011;4257;48.568;7.818;2023-05-14T08:31:39;2.70;;;1.20;;
8439;SDS011;4257;48.568;7.818;2023-05-14T08:34:06;2.25;;;1.17;;
8439;SDS011;4257;48.568;7.818;2023-05-14T08:36:33;4.70;;;1.58;;
8439;SDS011;4257;48.568;7.818;2023-05-14T08:38:59;3.97;;;1.10;;
8439;SDS011;4257;48.568;7.818;2023-05-14T08:41:26;2.15;;;1.23;;
8439;SDS011;4257;48.568;7.818;2023-05-14T08:43:55;1.70;;;1.05;;
8439;SDS011;4257;48.568;7.818;2023-05-14T08:46:25;1.85;;;1.17;;
8439;SDS011;4257;48.568;7.818;2023-05-14T08:48:55;1.13;;;0.77;;
8439;SDS011;4257;48.568;7.818;2023-05-14T08:51:23;1.13;;;0.93;;
8439;SDS011;4257;48.568;7.818;2023-05-14T08:53:50;0.93;;;0.82;;
8439;SDS011;4257;48.568;7.818;2023-05-14T08:56:16;2.75;;;1.00;;
8439;SDS011;4257;48.568;7.818;2023-05-14T08:58:43;1.77;;;1.45;;
8439;SDS011;4257;48.568;7.818;2023-05-14T09:01:09;1.33;;;1.23;;
8439;SDS011;4257;48.568;7.818;2023-05-14T09:03:37;2.35;;;1.00;;
8439;SDS011;4257;48.568;7.818;2023-05-14T09:06:04;0.88;;;0.80;;
8439;SDS011;4257;48.568;7.818;2023-05-14T09:08:31;1.17;;;0.60;;
8439;SDS011;4257;48.568;7.818;2023-05-14T09:11:00;1.15;;;0.80;;
8439;SDS011;4257;48.568;7.818;2023-05-14T09:13:26;0.65;;;0.57;;
8439;SDS011;4257;48.568;7.818;2023-05-14T09:15:53;0.90;;;0.60;;
8439;SDS011;4257;48.568;7.818;2023-05-14T09:18:20;1.25;;;0.60;;
8439;SDS011;4257;48.568;7.818;2023-05-14T09:20:48;1.30;;;1.13;;
8439;SDS011;4257;48.568;7.818;2023-05-14T09:23:16;1.30;;;1.00;;
8439;SDS011;4257;48.568;7.818;2023-05-14T09:25:42;0.80;;;0.60;;
8439;SDS011;4257;48.568;7.818;2023-05-14T09:28:09;1.15;;;1.05;;
8439;SDS011;4257;48.568;7.818;2023-05-14T09:30:35;0.60;;;0.40;;
8439;SDS011;4257;48.568;7.818;2023-05-14T09:33:01;2.20;;;0.85;;
8439;SDS011;4257;48.568;7.818;2023-05-14T09:35:29;1.10;;;0.70;;
8439;SDS011;4257;48.568;7.818;2023-05-14T09:37:57;1.48;;;0.77;;
8439;SDS011;4257;48.568;7.818;2023-05-14T09:40:24;0.70;;;0.60;;
8439;SDS011;4257;48.568;7.818;2023-05-14T09:42:50;1.15;;;0.60;;
8439;SDS011;4257;48.568;7.818;2023-05-14T09:45:17;1.85;;;0.73;;
8439;SDS011;4257;48.568;7.818;2023-05-14T09:47:43;1.00;;;0.70;;
8439;SDS011;4257;48.568;7.818;2023-05-14T09:50:10;1.20;;;0.50;;
8439;SDS011;4257;48.568;7.818;2023-05-14T09:52:37;0.68;;;0.52;;
8439;SDS011;4257;48.568;7.818;2023-05-14T09:55:05;1.45;;;0.70;;
8439;SDS011;4257;48.568;7.818;2023-05-14T09:57:33;1.55;;;0.70;;
8439;SDS011;4257;48.568;7.818;2023-05-14T09:59:59;1.02;;;0.65;;
8439;SDS011;4257;48.568;7.818;2023-05-14T10:02:28;1.08;;;0.60;;
8439;SDS011;4257;48.568;7.818;2023-05-14T10:05:01;3.67;;;0.52;;
8439;SDS011;4257;48.568;7.818;2023-05-14T10:07:30;0.57;;;0.45;;
8439;SDS011;4257;48.568;7.818;2023-05-14T10:10:01;0.55;;;0.40;;
8439;SDS011;4257;48.568;7.818;2023-05-14T10:12:31;0.73;;;0.50;;
8439;SDS011;4257;48.568;7.818;2023-05-14T10:15:00;0.52;;;0.38;;
8439;SDS011;4257;48.568;7.818;2023-05-14T10:17:28;2.08;;;0.90;;
8439;SDS011;4257;48.568;7.818;2023-05-14T10:19:57;1.10;;;0.77;;
8439;SDS011;4257;48.568;7.818;2023-05-14T10:22:25;0.57;;;0.50;;
8439;SDS011;4257;48.568;7.818;2023-05-14T10:24:53;0.90;;;0.75;;
8439;SDS011;4257;48.568;7.818;2023-05-14T10:27:20;0.98;;;0.65;;
8439;SDS011;4257;48.568;7.818;2023-05-14T10:29:51;0.82;;;0.70;;
8439;SDS011;4257;48.568;7.818;2023-05-14T10:32:19;2.15;;;0.52;;
8439;SDS011;4257;48.568;7.818;2023-05-14T10:34:46;0.70;;;0.47;;
8439;SDS011;4257;48.568;7.818;2023-05-14T10:37:14;0.40;;;0.40;;
8439;SDS011;4257;48.568;7.818;2023-05-14T10:39:42;1.10;;;0.50;;
8439;SDS011;4257;48.568;7.818;2023-05-14T10:42:09;0.85;;;0.52;;
8439;SDS011;4257;48.568;7.818;2023-05-14T10:44:38;0.85;;;0.73;;
8439;SDS011;4257;48.568;7.818;2023-05-14T10:47:09;1.05;;;0.40;;
8439;SDS011;4257;48.568;7.818;2023-05-14T10:49:36;1.33;;;0.50;;
8439;SDS011;4257;48.568;7.818;2023-05-14T10:52:03;0.82;;;0.65;;
8439;SDS011;4257;48.568;7.818;2023-05-14T10:54:29;0.63;;;0.40;;
8439;SDS011;4257;48.568;7.818;2023-05-14T10:57:00;1.00;;;0.52;;
8439;SDS011;4257;48.568;7.818;2023-05-14T10:59:26;0.63;;;0.52;;
8439;SDS011;4257;48.568;7.818;2023-05-14T11:01:53;1.40;;;0.60;;
8439;SDS011;4257;48.568;7.818;2023-05-14T11:04:23;1.15;;;0.68;;
8439;SDS011;4257;48.568;7.818;2023-05-14T11:06:50;1.02;;;0.80;;
8439;SDS011;4257;48.568;7.818;2023-05-14T11:09:18;1.13;;;0.60;;
8439;SDS011;4257;48.568;7.818;2023-05-14T11:11:46;1.45;;;1.25;;
8439;SDS011;4257;48.568;7.818;2023-05-14T11:14:12;0.98;;;0.93;;
8439;SDS011;4257;48.568;7.818;2023-05-14T11:16:39;0.60;;;0.60;;
8439;SDS011;4257;48.568;7.818;2023-05-14T11:19:06;0.90;;;0.52;;
8439;SDS011;4257;48.568;7.818;2023-05-14T11:21:34;1.15;;;0.60;;
8439;SDS011;4257;48.568;7.818;2023-05-14T11:24:00;0.85;;;0.82;;
8439;SDS011;4257;48.568;7.818;2023-05-14T11:26:30;1.10;;;0.65;;
8439;SDS011;4257;48.568;7.818;2023-05-14T11:28:56;0.80;;;0.60;;
8439;SDS011;4257;48.568;7.818;2023-05-14T11:31:24;1.35;;;0.90;;
8439;SDS011;4257;48.568;7.818;2023-05-14T11:33:50;1.02;;;0.90;;
8439;SDS011;4257;48.568;7.818;2023-05-14T11:36:18;1.42;;;0.77;;
8439;SDS011;4257;48.568;7.818;2023-05-14T11:38:46;2.95;;;0.80;;
8439;SDS011;4257;48.568;7.818;2023-05-14T11:41:15;0.68;;;0.68;;
8439;SDS011;4257;48.568;7.818;2023-05-14T11:43:41;2.22;;;1.55;;
8439;SDS011;4257;48.568;7.818;2023-05-14T11:46:14;2.97;;;0.95;;
8439;SDS011;4257;48.568;7.818;2023-05-14T11:48:42;1.95;;;0.98;;
8439;SDS011;4257;48.568;7.818;2023-05-14T11:51:08;1.23;;;0.85;;
8439;SDS011;4257;48.568;7.818;2023-05-14T11:53:35;1.08;;;0.60;;
8439;SDS011;4257;48.568;7.818;2023-05-14T11:56:03;0.70;;;0.63;;
8439;SDS011;4257;48.568;7.818;2023-05-14T11:58:30;1.00;;;0.70;;
8439;SDS011;4257;48.568;7.818;2023-05-14T12:00:57;1.42;;;0.85;;
8439;SDS011;4257;48.568;7.818;2023-05-14T12:03:24;3.13;;;1.67;;
8439;SDS011;4257;48.568;7.818;2023-05-14T12:05:53;0.98;;;0.77;;
8439;SDS011;4257;48.568;7.818;2023-05-14T12:08:21;2.15;;;1.13;;
8439;SDS011;4257;48.568;7.818;2023-05-14T12:10:48;0.88;;;0.50;;
8439;SDS011;4257;48.568;7.818;2023-05-14T12:13:16;0.95;;;0.57;;
8439;SDS011;4257;48.568;7.818;2023-05-14T12:15:45;2.40;;;0.60;;
8439;SDS011;4257;48.568;7.818;2023-05-14T12:18:12;0.60;;;0.50;;
8439;SDS011;4257;48.568;7.818;2023-05-14T12:20:44;0.70;;;0.60;;
8439;SDS011;4257;48.568;7.818;2023-05-14T12:23:11;0.63;;;0.63;;
8439;SDS011;4257;48.568;7.818;2023-05-14T12:25:38;0.47;;;0.40;;
8439;SDS011;4257;48.568;7.818;2023-05-14T12:28:12;0.82;;;0.70;;
8439;SDS011;4257;48.568;7.818;2023-05-14T12:30:41;1.60;;;0.65;;
8439;SDS011;4257;48.568;7.818;2023-05-14T12:33:07;0.57;;;0.50;;
8439;SDS011;4257;48.568;7.818;2023-05-14T12:35:34;1.73;;;0.63;;
8439;SDS011;4257;48.568;7.818;2023-05-14T12:38:01;1.10;;;0.60;;
8439;SDS011;4257;48.568;7.818;2023-05-14T12:40:28;1.00;;;0.70;;
8439;SDS011;4257;48.568;7.818;2023-05-14T12:42:54;0.88;;;0.60;;
8439;SDS011;4257;48.568;7.818;2023-05-14T12:45:21;0.85;;;0.65;;
8439;SDS011;4257;48.568;7.818;2023-05-14T12:47:49;1.15;;;0.70;;
8439;SDS011;4257;48.568;7.818;2023-05-14T12:50:16;0.40;;;0.40;;
8439;SDS011;4257;48.568;7.818;2023-05-14T12:52:42;1.23;;;0.63;;
8439;SDS011;4257;48.568;7.818;2023-05-14T12:55:10;0.95;;;0.60;;
8439;SDS011;4257;48.568;7.818;2023-05-14T12:57:37;0.47;;;0.40;;
8439;SDS011;4257;48.568;7.818;2023-05-14T13:00:04;0.70;;;0.50;;
8439;SDS011;4257;48.568;7.818;2023-05-14T13:02:32;1.00;;;0.80;;
8439;SDS011;4257;48.568;7.818;2023-05-14T13:04:59;1.15;;;0.70;;
8439;SDS011;4257;48.568;7.818;2023-05-14T13:07:26;0.70;;;0.52;;
8439;SDS011;4257;48.568;7.818;2023-05-14T13:09:54;0.57;;;0.57;;
8439;SDS011;4257;48.568;7.818;2023-05-14T13:12:20;0.40;;;0.40;;
8439;SDS011;4257;48.568;7.818;2023-05-14T13:14:47;0.80;;;0.60;;
8439;SDS011;4257;48.568;7.818;2023-05-14T13:17:14;1.05;;;0.80;;
8439;SDS011;4257;48.568;7.818;2023-05-14T13:19:40;0.70;;;0.52;;
8439;SDS011;4257;48.568;7.818;2023-05-14T13:22:08;1.50;;;0.70;;
8439;SDS011;4257;48.568;7.818;2023-05-14T13:24:35;1.42;;;0.60;;
8439;SDS011;4257;48.568;7.818;2023-05-14T13:27:01;0.65;;;0.40;;
8439;SDS011;4257;48.568;7.818;2023-05-14T13:29:28;0.82;;;0.73;;
8439;SDS011;4257;48.568;7.818;2023-05-14T13:31:55;0.82;;;0.60;;
8439;SDS011;4257;48.568;7.818;2023-05-14T13:34:22;0.50;;;0.50;;
8439;SDS011;4257;48.568;7.818;2023-05-14T13:36:48;0.73;;;0.55;;
8439;SDS011;4257;48.568;7.818;2023-05-14T13:39:16;1.00;;;0.65;;
8439;SDS011;4257;48.568;7.818;2023-05-14T13:41:46;2.53;;;0.60;;
8439;SDS011;4257;48.568;7.818;2023-05-14T13:44:14;0.38;;;0.30;;
8439;SDS011;4257;48.568;7.818;2023-05-14T13:46:41;5.50;;;0.70;;
8439;SDS011;4257;48.568;7.818;2023-05-14T13:49:07;0.75;;;0.30;;
8439;SDS011;4257;48.568;7.818;2023-05-14T13:51:34;1.92;;;0.90;;
8439;SDS011;4257;48.568;7.818;2023-05-14T13:54:00;1.13;;;0.80;;
8439;SDS011;4257;48.568;7.818;2023-05-14T13:56:28;0.68;;;0.60;;
8439;SDS011;4257;48.568;7.818;2023-05-14T13:58:55;0.80;;;0.40;;
8439;SDS011;4257;48.568;7.818;2023-05-14T14:01:21;1.85;;;0.60;;
8439;SDS011;4257;48.568;7.818;2023-05-14T14:03:48;0.70;;;0.68;;
8439;SDS011;4257;48.568;7.818;2023-05-14T14:06:14;0.82;;;0.50;;
8439;SDS011;4257;48.568;7.818;2023-05-14T14:08:41;0.50;;;0.50;;
8439;SDS011;4257;48.568;7.818;2023-05-14T14:11:07;0.70;;;0.70;;
8439;SDS011;4257;48.568;7.818;2023-05-14T14:13:35;1.55;;;0.98;;
8439;SDS011;4257;48.568;7.818;2023-05-14T14:16:02;1.02;;;0.60;;
8439;SDS011;4257;48.568;7.818;2023-05-14T14:18:31;1.10;;;0.85;;
8439;SDS011;4257;48.568;7.818;2023-05-14T14:20:58;0.93;;;0.52;;
8439;SDS011;4257;48.568;7.818;2023-05-14T14:23:25;0.82;;;0.52;;
8439;SDS011;4257;48.568;7.818;2023-05-14T14:25:51;0.40;;;0.40;;
8439;SDS011;4257;48.568;7.818;2023-05-14T14:28:18;0.63;;;0.63;;
8439;SDS011;4257;48.568;7.818;2023-05-14T14:30:45;0.65;;;0.50;;
8439;SDS011;4257;48.568;7.818;2023-05-14T14:33:12;1.00;;;0.60;;
8439;SDS011;4257;48.568;7.818;2023-05-14T14:35:38;0.60;;;0.60;;
8439;SDS011;4257;48.568;7.818;2023-05-14T14:38:05;0.80;;;0.70;;
8439;SDS011;4257;48.568;7.818;2023-05-14T14:40:31;0.73;;;0.50;;
8439;SDS011;4257;48.568;7.818;2023-05-14T14:42:58;0.70;;;0.40;;
8439;SDS011;4257;48.568;7.818;2023-05-14T14:45:26;1.30;;;0.60;;
8439;SDS011;4257;48.568;7.818;2023-05-14T14:48:20;1.10;;;0.63;;
8439;SDS011;4257;48.568;7.818;2023-05-14T14:50:53;0.55;;;0.40;;
8439;SDS011;4257;48.568;7.818;2023-05-14T14:53:20;0.60;;;0.40;;
8439;SDS011;4257;48.568;7.818;2023-05-14T14:55:47;0.70;;;0.60;;
8439;SDS011;4257;48.568;7.818;2023-05-14T14:58:13;1.08;;;0.70;;
8439;SDS011;4257;48.568;7.818;2023-05-14T15:00:40;1.88;;;0.93;;
8439;SDS011;4257;48.568;7.818;2023-05-14T15:03:08;0.98;;;0.90;;
8439;SDS011;4257;48.568;7.818;2023-05-14T15:05:34;2.03;;;1.23;;
8439;SDS011;4257;48.568;7.818;2023-05-14T15:08:01;0.75;;;0.60;;
8439;SDS011;4257;48.568;7.818;2023-05-14T15:10:28;0.85;;;0.30;;
8439;SDS011;4257;48.568;7.818;2023-05-14T15:12:55;0.93;;;0.50;;
8439;SDS011;4257;48.568;7.818;2023-05-14T15:15:22;0.98;;;0.60;;